LF7328 weather

Altisurface de Valmorel
Les Avanchers, Auvergne-Rhône-Alpes, France

Public forecast

Using degrees Celsius for public forecast. Weather courtesy of forecast.io.

Closest aviation weather report (METAR) to Altisurface de Valmorel

Closest report is Chambéry-Savoie Airport, 25.5 nm (47.2 km) WNW. Retrieved 2020/08/08 04:30 UTC (30 minutes ago):

LFLB 080430Z AUTO 00000KT CAVOK 15/13 Q1021 NOSIG

Closest aviation forecast (TAF) to Altisurface de Valmorel

Closest forecast is Chambéry-Savoie Airport, 25.5 nm (47.2 km) WNW. Retrieved 2020-08-08 00:00 UTC (5 hours ago):

TAF LFLB 072300Z 0800/0824 VRB03KT CAVOK BECMG 0808/0811 34006KT